sensor_id;sensor_type;location;lat;lon;timestamp;P1;durP1;ratioP1;P2;durP2;ratioP2
71484;SDS011;59300;52.074;4.758;2022-10-16T00:00:25;4.57;;;1.77;;
71484;SDS011;59300;52.074;4.758;2022-10-16T00:03:26;4.32;;;1.75;;
71484;SDS011;59300;52.074;4.758;2022-10-16T00:06:31;5.68;;;1.85;;
71484;SDS011;59300;52.074;4.758;2022-10-16T00:09:32;4.38;;;1.60;;
71484;SDS011;59300;52.074;4.758;2022-10-16T00:12:33;4.35;;;1.90;;
71484;SDS011;59300;52.074;4.758;2022-10-16T00:15:36;3.10;;;1.88;;
71484;SDS011;59300;52.074;4.758;2022-10-16T00:18:38;4.47;;;1.80;;
71484;SDS011;59300;52.074;4.758;2022-10-16T00:21:40;5.00;;;1.88;;
71484;SDS011;59300;52.074;4.758;2022-10-16T00:24:42;6.32;;;2.03;;
71484;SDS011;59300;52.074;4.758;2022-10-16T00:27:43;3.40;;;1.80;;
71484;SDS011;59300;52.074;4.758;2022-10-16T00:30:45;3.88;;;1.80;;
71484;SDS011;59300;52.074;4.758;2022-10-16T00:33:46;4.63;;;1.83;;
71484;SDS011;59300;52.074;4.758;2022-10-16T00:36:48;4.15;;;1.80;;
71484;SDS011;59300;52.074;4.758;2022-10-16T00:39:49;5.10;;;1.60;;
71484;SDS011;59300;52.074;4.758;2022-10-16T00:42:51;4.40;;;1.70;;
71484;SDS011;59300;52.074;4.758;2022-10-16T00:45:52;2.08;;;1.40;;
71484;SDS011;59300;52.074;4.758;2022-10-16T00:48:56;3.97;;;1.35;;
71484;SDS011;59300;52.074;4.758;2022-10-16T00:52:01;2.92;;;1.33;;
71484;SDS011;59300;52.074;4.758;2022-10-16T00:55:03;3.95;;;1.23;;
71484;SDS011;59300;52.074;4.758;2022-10-16T00:58:07;1.80;;;1.15;;
71484;SDS011;59300;52.074;4.758;2022-10-16T01:01:08;3.38;;;1.50;;
71484;SDS011;59300;52.074;4.758;2022-10-16T01:04:10;3.38;;;1.67;;
71484;SDS011;59300;52.074;4.758;2022-10-16T01:13:32;6.15;;;2.13;;
71484;SDS011;59300;52.074;4.758;2022-10-16T01:21:15;3.22;;;1.90;;
71484;SDS011;59300;52.074;4.758;2022-10-16T01:27:30;3.45;;;1.80;;
71484;SDS011;59300;52.074;4.758;2022-10-16T01:30:35;4.82;;;2.10;;
71484;SDS011;59300;52.074;4.758;2022-10-16T01:33:39;3.78;;;2.10;;
71484;SDS011;59300;52.074;4.758;2022-10-16T01:36:53;5.75;;;2.33;;
71484;SDS011;59300;52.074;4.758;2022-10-16T01:39:59;5.03;;;2.28;;
71484;SDS011;59300;52.074;4.758;2022-10-16T01:43:05;3.17;;;2.20;;
71484;SDS011;59300;52.074;4.758;2022-10-16T01:46:11;4.30;;;2.22;;
71484;SDS011;59300;52.074;4.758;2022-10-16T01:49:15;5.55;;;2.35;;
71484;SDS011;59300;52.074;4.758;2022-10-16T01:52:19;4.68;;;2.33;;
71484;SDS011;59300;52.074;4.758;2022-10-16T01:55:26;3.47;;;2.17;;
71484;SDS011;59300;52.074;4.758;2022-10-16T01:58:33;4.63;;;2.30;;
71484;SDS011;59300;52.074;4.758;2022-10-16T02:01:39;5.45;;;2.50;;
71484;SDS011;59300;52.074;4.758;2022-10-16T02:04:45;4.45;;;2.70;;
71484;SDS011;59300;52.074;4.758;2022-10-16T02:07:52;2.67;;;2.30;;
71484;SDS011;59300;52.074;4.758;2022-10-16T02:10:54;6.13;;;2.58;;
71484;SDS011;59300;52.074;4.758;2022-10-16T02:14:01;4.80;;;2.58;;
71484;SDS011;59300;52.074;4.758;2022-10-16T02:17:12;2.78;;;2.53;;
71484;SDS011;59300;52.074;4.758;2022-10-16T02:20:16;5.65;;;2.70;;
71484;SDS011;59300;52.074;4.758;2022-10-16T02:23:21;4.75;;;2.90;;
71484;SDS011;59300;52.074;4.758;2022-10-16T02:26:36;3.65;;;2.90;;
71484;SDS011;59300;52.074;4.758;2022-10-16T02:29:46;4.93;;;2.88;;
71484;SDS011;59300;52.074;4.758;2022-10-16T02:32:51;5.65;;;3.20;;
71484;SDS011;59300;52.074;4.758;2022-10-16T02:35:54;4.57;;;2.90;;
71484;SDS011;59300;52.074;4.758;2022-10-16T02:38:58;3.92;;;2.95;;
71484;SDS011;59300;52.074;4.758;2022-10-16T02:42:00;4.72;;;3.53;;
71484;SDS011;59300;52.074;4.758;2022-10-16T02:45:02;5.65;;;3.17;;
71484;SDS011;59300;52.074;4.758;2022-10-16T02:48:05;9.32;;;3.85;;
71484;SDS011;59300;52.074;4.758;2022-10-16T02:51:07;8.38;;;3.40;;
71484;SDS011;59300;52.074;4.758;2022-10-16T02:54:08;5.97;;;3.22;;
71484;SDS011;59300;52.074;4.758;2022-10-16T02:57:10;6.45;;;3.67;;
71484;SDS011;59300;52.074;4.758;2022-10-16T03:00:12;9.73;;;3.78;;
71484;SDS011;59300;52.074;4.758;2022-10-16T03:03:15;3.92;;;3.22;;
71484;SDS011;59300;52.074;4.758;2022-10-16T03:06:16;5.93;;;2.92;;
71484;SDS011;59300;52.074;4.758;2022-10-16T03:09:19;4.57;;;3.00;;
71484;SDS011;59300;52.074;4.758;2022-10-16T03:12:20;5.88;;;3.33;;
71484;SDS011;59300;52.074;4.758;2022-10-16T03:15:22;4.38;;;2.38;;
71484;SDS011;59300;52.074;4.758;2022-10-16T03:18:24;4.93;;;2.65;;
71484;SDS011;59300;52.074;4.758;2022-10-16T03:21:25;5.47;;;2.40;;
71484;SDS011;59300;52.074;4.758;2022-10-16T03:24:27;5.75;;;2.38;;
71484;SDS011;59300;52.074;4.758;2022-10-16T03:27:28;5.75;;;2.40;;
71484;SDS011;59300;52.074;4.758;2022-10-16T03:30:30;6.05;;;2.25;;
71484;SDS011;59300;52.074;4.758;2022-10-16T03:33:32;8.45;;;2.53;;
71484;SDS011;59300;52.074;4.758;2022-10-16T03:36:33;4.13;;;2.22;;
71484;SDS011;59300;52.074;4.758;2022-10-16T03:39:35;6.30;;;2.42;;
71484;SDS011;59300;52.074;4.758;2022-10-16T03:42:36;3.83;;;2.17;;
71484;SDS011;59300;52.074;4.758;2022-10-16T03:45:37;4.57;;;2.45;;
71484;SDS011;59300;52.074;4.758;2022-10-16T03:48:39;6.00;;;2.00;;
71484;SDS011;59300;52.074;4.758;2022-10-16T03:51:40;3.45;;;2.05;;
71484;SDS011;59300;52.074;4.758;2022-10-16T03:54:42;4.25;;;2.22;;
71484;SDS011;59300;52.074;4.758;2022-10-16T03:57:43;3.92;;;2.40;;
71484;SDS011;59300;52.074;4.758;2022-10-16T04:00:45;3.63;;;2.10;;
71484;SDS011;59300;52.074;4.758;2022-10-16T04:03:47;4.20;;;2.00;;
71484;SDS011;59300;52.074;4.758;2022-10-16T04:06:48;3.47;;;2.10;;
71484;SDS011;59300;52.074;4.758;2022-10-16T04:09:49;4.78;;;1.98;;
71484;SDS011;59300;52.074;4.758;2022-10-16T04:12:51;2.95;;;2.20;;
71484;SDS011;59300;52.074;4.758;2022-10-16T04:15:52;3.22;;;2.20;;
71484;SDS011;59300;52.074;4.758;2022-10-16T04:18:54;8.52;;;2.50;;
71484;SDS011;59300;52.074;4.758;2022-10-16T04:21:56;5.90;;;2.42;;
71484;SDS011;59300;52.074;4.758;2022-10-16T04:24:57;4.20;;;2.45;;
71484;SDS011;59300;52.074;4.758;2022-10-16T04:27:58;3.45;;;2.10;;
71484;SDS011;59300;52.074;4.758;2022-10-16T04:31:00;6.32;;;2.38;;
71484;SDS011;59300;52.074;4.758;2022-10-16T04:34:05;8.10;;;2.10;;
71484;SDS011;59300;52.074;4.758;2022-10-16T04:37:06;7.50;;;2.42;;
71484;SDS011;59300;52.074;4.758;2022-10-16T04:40:08;6.93;;;2.97;;
71484;SDS011;59300;52.074;4.758;2022-10-16T04:43:09;3.65;;;2.20;;
71484;SDS011;59300;52.074;4.758;2022-10-16T04:46:11;4.78;;;2.20;;
71484;SDS011;59300;52.074;4.758;2022-10-16T04:49:12;6.00;;;1.88;;
71484;SDS011;59300;52.074;4.758;2022-10-16T04:52:13;4.57;;;2.10;;
71484;SDS011;59300;52.074;4.758;2022-10-16T04:55:15;7.03;;;2.60;;
71484;SDS011;59300;52.074;4.758;2022-10-16T04:58:17;3.78;;;2.30;;
71484;SDS011;59300;52.074;4.758;2022-10-16T05:01:18;4.07;;;2.30;;
71484;SDS011;59300;52.074;4.758;2022-10-16T05:04:20;4.57;;;2.45;;
71484;SDS011;59300;52.074;4.758;2022-10-16T05:07:21;3.95;;;2.50;;
71484;SDS011;59300;52.074;4.758;2022-10-16T05:10:22;3.45;;;2.30;;
71484;SDS011;59300;52.074;4.758;2022-10-16T05:13:24;4.18;;;2.50;;
71484;SDS011;59300;52.074;4.758;2022-10-16T05:16:25;8.38;;;2.38;;
71484;SDS011;59300;52.074;4.758;2022-10-16T05:19:27;4.97;;;2.17;;
71484;SDS011;59300;52.074;4.758;2022-10-16T05:22:29;7.30;;;2.08;;
71484;SDS011;59300;52.074;4.758;2022-10-16T05:25:31;3.40;;;2.08;;
71484;SDS011;59300;52.074;4.758;2022-10-16T05:28:32;6.32;;;2.60;;
71484;SDS011;59300;52.074;4.758;2022-10-16T05:31:34;7.43;;;2.30;;
71484;SDS011;59300;52.074;4.758;2022-10-16T05:34:35;5.13;;;2.40;;
71484;SDS011;59300;52.074;4.758;2022-10-16T05:37:37;3.15;;;2.20;;
71484;SDS011;59300;52.074;4.758;2022-10-16T05:40:38;4.97;;;2.17;;
71484;SDS011;59300;52.074;4.758;2022-10-16T05:43:40;8.43;;;2.90;;
71484;SDS011;59300;52.074;4.758;2022-10-16T05:46:41;6.03;;;2.92;;
71484;SDS011;59300;52.074;4.758;2022-10-16T05:49:43;7.32;;;2.90;;
71484;SDS011;59300;52.074;4.758;2022-10-16T05:52:44;5.53;;;2.50;;
71484;SDS011;59300;52.074;4.758;2022-10-16T05:55:51;7.18;;;2.80;;
71484;SDS011;59300;52.074;4.758;2022-10-16T05:58:53;6.43;;;2.88;;
71484;SDS011;59300;52.074;4.758;2022-10-16T06:01:54;8.88;;;2.90;;
71484;SDS011;59300;52.074;4.758;2022-10-16T06:04:56;5.70;;;2.80;;
71484;SDS011;59300;52.074;4.758;2022-10-16T06:07:57;6.18;;;2.97;;
71484;SDS011;59300;52.074;4.758;2022-10-16T06:11:02;7.90;;;3.38;;
71484;SDS011;59300;52.074;4.758;2022-10-16T06:14:05;8.30;;;3.15;;
71484;SDS011;59300;52.074;4.758;2022-10-16T06:17:06;9.23;;;3.13;;
71484;SDS011;59300;52.074;4.758;2022-10-16T06:20:08;8.63;;;3.05;;
71484;SDS011;59300;52.074;4.758;2022-10-16T06:23:10;9.60;;;2.85;;
71484;SDS011;59300;52.074;4.758;2022-10-16T06:26:12;8.40;;;2.90;;
71484;SDS011;59300;52.074;4.758;2022-10-16T06:32:17;9.48;;;2.60;;
71484;SDS011;59300;52.074;4.758;2022-10-16T06:35:18;10.48;;;2.80;;
71484;SDS011;59300;52.074;4.758;2022-10-16T06:38:20;3.38;;;2.03;;
71484;SDS011;59300;52.074;4.758;2022-10-16T06:41:21;5.43;;;2.00;;
71484;SDS011;59300;52.074;4.758;2022-10-16T06:44:23;6.78;;;2.10;;
71484;SDS011;59300;52.074;4.758;2022-10-16T06:47:25;6.13;;;1.95;;
71484;SDS011;59300;52.074;4.758;2022-10-16T06:50:27;6.63;;;1.80;;
71484;SDS011;59300;52.074;4.758;2022-10-16T06:53:29;5.93;;;1.60;;
71484;SDS011;59300;52.074;4.758;2022-10-16T06:56:43;7.68;;;1.70;;
71484;SDS011;59300;52.074;4.758;2022-10-16T06:59:45;6.88;;;1.60;;
71484;SDS011;59300;52.074;4.758;2022-10-16T07:02:47;6.85;;;1.73;;
71484;SDS011;59300;52.074;4.758;2022-10-16T07:05:49;5.15;;;1.13;;
71484;SDS011;59300;52.074;4.758;2022-10-16T07:08:50;8.73;;;2.42;;
71484;SDS011;59300;52.074;4.758;2022-10-16T07:11:52;6.22;;;1.50;;
71484;SDS011;59300;52.074;4.758;2022-10-16T07:14:53;7.78;;;1.27;;
71484;SDS011;59300;52.074;4.758;2022-10-16T07:17:55;6.85;;;2.00;;
71484;SDS011;59300;52.074;4.758;2022-10-16T07:21:02;5.20;;;1.40;;
71484;SDS011;59300;52.074;4.758;2022-10-16T07:24:12;5.63;;;1.40;;
71484;SDS011;59300;52.074;4.758;2022-10-16T07:27:16;5.15;;;1.52;;
71484;SDS011;59300;52.074;4.758;2022-10-16T07:30:18;10.32;;;2.03;;
71484;SDS011;59300;52.074;4.758;2022-10-16T07:33:19;4.95;;;1.40;;
71484;SDS011;59300;52.074;4.758;2022-10-16T07:36:21;6.28;;;1.67;;
71484;SDS011;59300;52.074;4.758;2022-10-16T07:39:22;5.78;;;1.40;;
71484;SDS011;59300;52.074;4.758;2022-10-16T07:42:24;6.70;;;1.77;;
71484;SDS011;59300;52.074;4.758;2022-10-16T07:45:25;5.32;;;1.52;;
71484;SDS011;59300;52.074;4.758;2022-10-16T07:48:28;5.78;;;1.50;;
71484;SDS011;59300;52.074;4.758;2022-10-16T07:54:32;6.25;;;1.58;;
71484;SDS011;59300;52.074;4.758;2022-10-16T07:57:33;5.93;;;2.10;;
71484;SDS011;59300;52.074;4.758;2022-10-16T08:00:36;4.85;;;1.50;;
71484;SDS011;59300;52.074;4.758;2022-10-16T08:03:38;7.07;;;1.85;;
71484;SDS011;59300;52.074;4.758;2022-10-16T08:09:43;8.68;;;2.10;;
71484;SDS011;59300;52.074;4.758;2022-10-16T08:12:45;5.35;;;1.80;;
71484;SDS011;59300;52.074;4.758;2022-10-16T08:15:46;8.80;;;2.15;;
71484;SDS011;59300;52.074;4.758;2022-10-16T08:18:48;10.27;;;1.95;;
71484;SDS011;59300;52.074;4.758;2022-10-16T08:21:50;9.35;;;2.15;;
71484;SDS011;59300;52.074;4.758;2022-10-16T08:24:51;12.00;;;2.28;;
71484;SDS011;59300;52.074;4.758;2022-10-16T08:27:53;7.07;;;1.75;;
71484;SDS011;59300;52.074;4.758;2022-10-16T08:30:54;6.28;;;1.60;;
71484;SDS011;59300;52.074;4.758;2022-10-16T08:33:56;7.38;;;1.98;;
71484;SDS011;59300;52.074;4.758;2022-10-16T08:36:57;9.52;;;2.00;;
71484;SDS011;59300;52.074;4.758;2022-10-16T08:39:59;12.52;;;2.53;;
71484;SDS011;59300;52.074;4.758;2022-10-16T08:46:16;8.20;;;1.80;;
71484;SDS011;59300;52.074;4.758;2022-10-16T08:49:21;9.90;;;1.85;;
71484;SDS011;59300;52.074;4.758;2022-10-16T08:52:23;9.32;;;1.75;;
71484;SDS011;59300;52.074;4.758;2022-10-16T08:59:06;6.45;;;1.90;;
71484;SDS011;59300;52.074;4.758;2022-10-16T09:09:11;14.90;;;2.22;;
71484;SDS011;59300;52.074;4.758;2022-10-16T09:12:35;8.20;;;1.83;;
71484;SDS011;59300;52.074;4.758;2022-10-16T09:22:18;12.77;;;2.58;;
71484;SDS011;59300;52.074;4.758;2022-10-16T09:25:25;11.55;;;2.20;;
71484;SDS011;59300;52.074;4.758;2022-10-16T09:28:27;14.82;;;2.30;;
71484;SDS011;59300;52.074;4.758;2022-10-16T09:31:29;8.27;;;1.90;;
71484;SDS011;59300;52.074;4.758;2022-10-16T09:34:32;7.00;;;2.10;;
71484;SDS011;59300;52.074;4.758;2022-10-16T09:37:35;10.80;;;2.05;;
71484;SDS011;59300;52.074;4.758;2022-10-16T09:40:37;13.27;;;2.47;;
71484;SDS011;59300;52.074;4.758;2022-10-16T09:43:46;12.15;;;2.47;;
71484;SDS011;59300;52.074;4.758;2022-10-16T09:47:05;8.95;;;1.83;;
71484;SDS011;59300;52.074;4.758;2022-10-16T09:50:25;9.85;;;2.05;;
71484;SDS011;59300;52.074;4.758;2022-10-16T09:53:41;11.07;;;2.13;;
71484;SDS011;59300;52.074;4.758;2022-10-16T09:56:44;12.73;;;2.05;;
71484;SDS011;59300;52.074;4.758;2022-10-16T09:59:47;12.30;;;2.15;;
71484;SDS011;59300;52.074;4.758;2022-10-16T10:02:50;11.73;;;2.20;;
71484;SDS011;59300;52.074;4.758;2022-10-16T10:05:53;9.57;;;2.33;;
71484;SDS011;59300;52.074;4.758;2022-10-16T10:09:03;10.98;;;2.00;;
71484;SDS011;59300;52.074;4.758;2022-10-16T10:15:33;10.98;;;2.15;;
71484;SDS011;59300;52.074;4.758;2022-10-16T10:18:37;10.02;;;2.72;;
71484;SDS011;59300;52.074;4.758;2022-10-16T10:21:39;7.82;;;1.90;;
71484;SDS011;59300;52.074;4.758;2022-10-16T10:24:40;12.88;;;2.10;;
71484;SDS011;59300;52.074;4.758;2022-10-16T10:28:03;13.65;;;2.00;;
71484;SDS011;59300;52.074;4.758;2022-10-16T10:41:22;10.52;;;1.70;;
71484;SDS011;59300;52.074;4.758;2022-10-16T11:07:42;15.68;;;2.67;;
71484;SDS011;59300;52.074;4.758;2022-10-16T11:10:54;8.43;;;1.58;;
71484;SDS011;59300;52.074;4.758;2022-10-16T11:14:08;13.60;;;2.05;;
71484;SDS011;59300;52.074;4.758;2022-10-16T11:17:21;9.70;;;1.67;;
71484;SDS011;59300;52.074;4.758;2022-10-16T11:20:32;9.80;;;2.83;;
71484;SDS011;59300;52.074;4.758;2022-10-16T11:23:48;8.52;;;2.30;;
71484;SDS011;59300;52.074;4.758;2022-10-16T11:26:55;9.77;;;2.25;;
71484;SDS011;59300;52.074;4.758;2022-10-16T11:30:01;11.65;;;1.85;;
71484;SDS011;59300;52.074;4.758;2022-10-16T11:39:25;8.82;;;1.52;;
71484;SDS011;59300;52.074;4.758;2022-10-16T11:45:36;9.18;;;1.67;;
71484;SDS011;59300;52.074;4.758;2022-10-16T11:48:43;7.07;;;1.65;;
71484;SDS011;59300;52.074;4.758;2022-10-16T11:55:57;7.57;;;1.70;;
71484;SDS011;59300;52.074;4.758;2022-10-16T11:59:02;10.15;;;1.65;;
71484;SDS011;59300;52.074;4.758;2022-10-16T12:08:53;8.70;;;1.52;;
71484;SDS011;59300;52.074;4.758;2022-10-16T12:11:55;11.65;;;2.10;;
71484;SDS011;59300;52.074;4.758;2022-10-16T12:15:15;9.18;;;1.70;;
71484;SDS011;59300;52.074;4.758;2022-10-16T12:18:44;11.55;;;1.85;;
71484;SDS011;59300;52.074;4.758;2022-10-16T12:21:47;7.65;;;1.67;;
71484;SDS011;59300;52.074;4.758;2022-10-16T12:24:50;14.60;;;2.00;;
71484;SDS011;59300;52.074;4.758;2022-10-16T12:31:02;8.20;;;1.42;;
71484;SDS011;59300;52.074;4.758;2022-10-16T12:34:14;9.18;;;1.88;;
71484;SDS011;59300;52.074;4.758;2022-10-16T12:37:38;10.75;;;1.75;;
71484;SDS011;59300;52.074;4.758;2022-10-16T12:40:39;11.38;;;1.90;;
71484;SDS011;59300;52.074;4.758;2022-10-16T12:43:45;11.57;;;1.67;;
71484;SDS011;59300;52.074;4.758;2022-10-16T12:46:47;12.43;;;1.90;;
71484;SDS011;59300;52.074;4.758;2022-10-16T12:49:52;8.15;;;1.90;;
71484;SDS011;59300;52.074;4.758;2022-10-16T12:52:55;7.45;;;1.60;;
71484;SDS011;59300;52.074;4.758;2022-10-16T12:59:19;10.07;;;2.28;;
71484;SDS011;59300;52.074;4.758;2022-10-16T13:06:04;13.18;;;1.80;;
71484;SDS011;59300;52.074;4.758;2022-10-16T13:09:30;7.15;;;1.25;;
71484;SDS011;59300;52.074;4.758;2022-10-16T13:16:12;12.48;;;2.22;;
71484;SDS011;59300;52.074;4.758;2022-10-16T13:19:52;11.63;;;2.10;;
71484;SDS011;59300;52.074;4.758;2022-10-16T13:26:17;13.13;;;1.80;;
71484;SDS011;59300;52.074;4.758;2022-10-16T13:29:41;9.82;;;1.70;;
71484;SDS011;59300;52.074;4.758;2022-10-16T13:33:02;11.50;;;1.75;;
71484;SDS011;59300;52.074;4.758;2022-10-16T13:36:19;11.82;;;2.25;;
71484;SDS011;59300;52.074;4.758;2022-10-16T13:42:26;13.07;;;2.00;;
71484;SDS011;59300;52.074;4.758;2022-10-16T13:45:29;13.75;;;2.20;;
71484;SDS011;59300;52.074;4.758;2022-10-16T13:48:31;9.75;;;1.70;;
71484;SDS011;59300;52.074;4.758;2022-10-16T13:51:33;8.07;;;1.77;;
71484;SDS011;59300;52.074;4.758;2022-10-16T13:54:35;9.95;;;1.58;;
71484;SDS011;59300;52.074;4.758;2022-10-16T13:57:36;8.27;;;1.67;;
71484;SDS011;59300;52.074;4.758;2022-10-16T14:00:38;12.48;;;2.20;;
71484;SDS011;59300;52.074;4.758;2022-10-16T14:03:39;11.65;;;1.40;;
71484;SDS011;59300;52.074;4.758;2022-10-16T14:06:43;11.13;;;2.00;;
71484;SDS011;59300;52.074;4.758;2022-10-16T14:09:48;8.38;;;2.00;;
71484;SDS011;59300;52.074;4.758;2022-10-16T14:12:58;12.05;;;1.98;;
71484;SDS011;59300;52.074;4.758;2022-10-16T14:16:09;7.68;;;1.40;;
71484;SDS011;59300;52.074;4.758;2022-10-16T14:19:26;10.43;;;1.90;;
71484;SDS011;59300;52.074;4.758;2022-10-16T14:25:34;12.57;;;1.92;;
71484;SDS011;59300;52.074;4.758;2022-10-16T14:28:36;10.52;;;2.10;;
71484;SDS011;59300;52.074;4.758;2022-10-16T14:31:39;8.02;;;2.05;;
71484;SDS011;59300;52.074;4.758;2022-10-16T14:34:40;11.85;;;1.80;;
71484;SDS011;59300;52.074;4.758;2022-10-16T14:37:42;13.65;;;1.92;;
71484;SDS011;59300;52.074;4.758;2022-10-16T14:40:48;13.27;;;1.67;;
71484;SDS011;59300;52.074;4.758;2022-10-16T14:43:51;17.17;;;2.72;;
71484;SDS011;59300;52.074;4.758;2022-10-16T14:46:56;11.05;;;2.30;;
71484;SDS011;59300;52.074;4.758;2022-10-16T14:49:58;8.05;;;1.80;;
71484;SDS011;59300;52.074;4.758;2022-10-16T14:52:59;11.70;;;1.90;;
71484;SDS011;59300;52.074;4.758;2022-10-16T14:56:08;14.15;;;2.28;;
71484;SDS011;59300;52.074;4.758;2022-10-16T14:59:38;14.00;;;2.30;;
71484;SDS011;59300;52.074;4.758;2022-10-16T15:02:40;9.05;;;1.88;;
71484;SDS011;59300;52.074;4.758;2022-10-16T15:05:41;13.75;;;2.10;;
71484;SDS011;59300;52.074;4.758;2022-10-16T15:08:43;14.70;;;2.25;;
71484;SDS011;59300;52.074;4.758;2022-10-16T15:11:44;11.90;;;1.90;;
71484;SDS011;59300;52.074;4.758;2022-10-16T15:14:46;9.93;;;2.05;;
71484;SDS011;59300;52.074;4.758;2022-10-16T15:17:47;9.77;;;2.13;;
71484;SDS011;59300;52.074;4.758;2022-10-16T15:20:49;12.25;;;1.90;;
71484;SDS011;59300;52.074;4.758;2022-10-16T15:23:51;12.88;;;2.70;;
71484;SDS011;59300;52.074;4.758;2022-10-16T15:26:52;11.63;;;1.95;;
71484;SDS011;59300;52.074;4.758;2022-10-16T15:29:54;9.63;;;1.77;;
71484;SDS011;59300;52.074;4.758;2022-10-16T15:32:55;8.48;;;1.70;;
71484;SDS011;59300;52.074;4.758;2022-10-16T15:35:57;12.13;;;2.45;;
71484;SDS011;59300;52.074;4.758;2022-10-16T15:38:59;15.88;;;4.63;;
71484;SDS011;59300;52.074;4.758;2022-10-16T15:42:00;12.93;;;3.65;;
71484;SDS011;59300;52.074;4.758;2022-10-16T15:45:02;12.85;;;4.25;;
71484;SDS011;59300;52.074;4.758;2022-10-16T15:48:04;14.40;;;2.83;;
71484;SDS011;59300;52.074;4.758;2022-10-16T15:51:06;8.30;;;2.10;;
71484;SDS011;59300;52.074;4.758;2022-10-16T15:54:08;13.68;;;2.70;;
71484;SDS011;59300;52.074;4.758;2022-10-16T15:57:10;7.43;;;1.88;;
71484;SDS011;59300;52.074;4.758;2022-10-16T16:00:13;7.68;;;1.88;;
71484;SDS011;59300;52.074;4.758;2022-10-16T16:06:17;14.60;;;2.50;;
71484;SDS011;59300;52.074;4.758;2022-10-16T16:09:18;11.20;;;2.25;;
71484;SDS011;59300;52.074;4.758;2022-10-16T16:12:20;18.80;;;3.20;;
71484;SDS011;59300;52.074;4.758;2022-10-16T16:15:21;9.57;;;3.38;;
71484;SDS011;59300;52.074;4.758;2022-10-16T16:18:23;10.68;;;4.10;;
71484;SDS011;59300;52.074;4.758;2022-10-16T16:21:24;8.07;;;2.75;;
71484;SDS011;59300;52.074;4.758;2022-10-16T16:24:26;12.35;;;2.28;;
71484;SDS011;59300;52.074;4.758;2022-10-16T16:27:27;15.27;;;2.78;;
71484;SDS011;59300;52.074;4.758;2022-10-16T16:30:30;9.48;;;3.25;;
71484;SDS011;59300;52.074;4.758;2022-10-16T16:33:31;10.63;;;3.28;;
71484;SDS011;59300;52.074;4.758;2022-10-16T16:36:34;12.05;;;2.70;;
71484;SDS011;59300;52.074;4.758;2022-10-16T16:39:35;10.55;;;2.58;;
71484;SDS011;59300;52.074;4.758;2022-10-16T16:42:37;8.25;;;2.38;;
71484;SDS011;59300;52.074;4.758;2022-10-16T16:45:38;11.10;;;2.63;;
71484;SDS011;59300;52.074;4.758;2022-10-16T16:48:40;17.77;;;3.70;;
71484;SDS011;59300;52.074;4.758;2022-10-16T16:51:42;13.93;;;3.20;;
71484;SDS011;59300;52.074;4.758;2022-10-16T16:54:44;10.40;;;3.38;;
71484;SDS011;59300;52.074;4.758;2022-10-16T16:57:47;12.10;;;3.20;;
71484;SDS011;59300;52.074;4.758;2022-10-16T17:00:49;13.70;;;4.70;;
71484;SDS011;59300;52.074;4.758;2022-10-16T17:04:02;16.00;;;5.00;;
71484;SDS011;59300;52.074;4.758;2022-10-16T17:07:04;11.93;;;4.15;;
71484;SDS011;59300;52.074;4.758;2022-10-16T17:10:06;15.02;;;4.63;;
71484;SDS011;59300;52.074;4.758;2022-10-16T17:13:08;17.60;;;5.93;;
71484;SDS011;59300;52.074;4.758;2022-10-16T17:16:09;17.77;;;6.07;;
71484;SDS011;59300;52.074;4.758;2022-10-16T17:19:12;11.38;;;5.47;;
71484;SDS011;59300;52.074;4.758;2022-10-16T17:22:15;13.32;;;5.13;;
71484;SDS011;59300;52.074;4.758;2022-10-16T17:25:18;13.38;;;4.53;;
71484;SDS011;59300;52.074;4.758;2022-10-16T17:28:19;19.52;;;5.30;;
71484;SDS011;59300;52.074;4.758;2022-10-16T17:31:22;15.77;;;5.35;;
71484;SDS011;59300;52.074;4.758;2022-10-16T17:34:25;12.50;;;4.80;;
71484;SDS011;59300;52.074;4.758;2022-10-16T17:37:27;14.80;;;5.35;;
71484;SDS011;59300;52.074;4.758;2022-10-16T17:40:28;14.20;;;5.80;;
71484;SDS011;59300;52.074;4.758;2022-10-16T17:43:30;15.40;;;6.28;;
71484;SDS011;59300;52.074;4.758;2022-10-16T17:46:31;13.15;;;6.22;;
71484;SDS011;59300;52.074;4.758;2022-10-16T17:49:40;15.23;;;5.65;;
71484;SDS011;59300;52.074;4.758;2022-10-16T17:52:41;15.02;;;6.03;;
71484;SDS011;59300;52.074;4.758;2022-10-16T17:55:43;13.60;;;5.15;;
71484;SDS011;59300;52.074;4.758;2022-10-16T17:58:48;16.05;;;5.78;;
71484;SDS011;59300;52.074;4.758;2022-10-16T18:01:52;12.02;;;5.32;;
71484;SDS011;59300;52.074;4.758;2022-10-16T18:04:53;11.23;;;4.72;;
71484;SDS011;59300;52.074;4.758;2022-10-16T18:07:55;9.50;;;4.68;;
71484;SDS011;59300;52.074;4.758;2022-10-16T18:10:56;13.57;;;4.68;;
71484;SDS011;59300;52.074;4.758;2022-10-16T18:13:58;13.18;;;4.40;;
71484;SDS011;59300;52.074;4.758;2022-10-16T18:17:01;11.80;;;5.10;;
71484;SDS011;59300;52.074;4.758;2022-10-16T18:20:04;20.85;;;5.90;;
71484;SDS011;59300;52.074;4.758;2022-10-16T18:23:07;16.80;;;5.47;;
71484;SDS011;59300;52.074;4.758;2022-10-16T18:26:09;14.00;;;6.25;;
71484;SDS011;59300;52.074;4.758;2022-10-16T18:29:11;16.83;;;6.60;;
71484;SDS011;59300;52.074;4.758;2022-10-16T18:32:13;15.07;;;6.63;;
71484;SDS011;59300;52.074;4.758;2022-10-16T18:35:14;15.98;;;6.90;;
71484;SDS011;59300;52.074;4.758;2022-10-16T18:38:16;18.77;;;9.15;;
71484;SDS011;59300;52.074;4.758;2022-10-16T18:41:18;19.33;;;8.48;;
71484;SDS011;59300;52.074;4.758;2022-10-16T18:44:19;17.60;;;7.93;;
71484;SDS011;59300;52.074;4.758;2022-10-16T18:47:27;20.38;;;7.68;;
71484;SDS011;59300;52.074;4.758;2022-10-16T18:50:29;16.75;;;7.20;;
71484;SDS011;59300;52.074;4.758;2022-10-16T18:53:31;17.92;;;8.00;;
71484;SDS011;59300;52.074;4.758;2022-10-16T18:56:32;22.50;;;7.55;;
71484;SDS011;59300;52.074;4.758;2022-10-16T18:59:34;16.02;;;6.75;;
71484;SDS011;59300;52.074;4.758;2022-10-16T19:02:35;21.25;;;9.07;;
71484;SDS011;59300;52.074;4.758;2022-10-16T19:05:36;18.73;;;6.50;;
71484;SDS011;59300;52.074;4.758;2022-10-16T19:08:38;13.52;;;6.53;;
71484;SDS011;59300;52.074;4.758;2022-10-16T19:11:40;20.33;;;6.63;;
71484;SDS011;59300;52.074;4.758;2022-10-16T19:14:42;19.95;;;6.22;;
71484;SDS011;59300;52.074;4.758;2022-10-16T19:17:43;16.52;;;6.18;;
71484;SDS011;59300;52.074;4.758;2022-10-16T19:20:45;19.52;;;6.18;;
71484;SDS011;59300;52.074;4.758;2022-10-16T19:23:50;17.73;;;5.88;;
71484;SDS011;59300;52.074;4.758;2022-10-16T19:26:53;16.00;;;5.80;;
71484;SDS011;59300;52.074;4.758;2022-10-16T19:29:54;15.52;;;5.93;;
71484;SDS011;59300;52.074;4.758;2022-10-16T19:32:56;11.80;;;5.80;;
71484;SDS011;59300;52.074;4.758;2022-10-16T19:36:11;19.40;;;7.18;;
71484;SDS011;59300;52.074;4.758;2022-10-16T19:39:20;14.25;;;6.68;;
71484;SDS011;59300;52.074;4.758;2022-10-16T19:42:22;27.88;;;6.72;;
71484;SDS011;59300;52.074;4.758;2022-10-16T19:45:23;20.08;;;6.95;;
71484;SDS011;59300;52.074;4.758;2022-10-16T19:48:25;22.10;;;7.78;;
71484;SDS011;59300;52.074;4.758;2022-10-16T19:51:27;30.15;;;8.57;;
71484;SDS011;59300;52.074;4.758;2022-10-16T19:54:29;27.65;;;8.98;;
71484;SDS011;59300;52.074;4.758;2022-10-16T19:57:34;22.13;;;8.30;;
71484;SDS011;59300;52.074;4.758;2022-10-16T20:00:41;20.20;;;7.78;;
71484;SDS011;59300;52.074;4.758;2022-10-16T20:03:43;18.60;;;7.63;;
71484;SDS011;59300;52.074;4.758;2022-10-16T20:06:46;21.08;;;8.90;;
71484;SDS011;59300;52.074;4.758;2022-10-16T20:09:48;21.35;;;8.73;;
71484;SDS011;59300;52.074;4.758;2022-10-16T20:12:50;19.35;;;7.65;;
71484;SDS011;59300;52.074;4.758;2022-10-16T20:15:52;24.70;;;8.48;;
71484;SDS011;59300;52.074;4.758;2022-10-16T20:18:53;16.42;;;8.25;;
71484;SDS011;59300;52.074;4.758;2022-10-16T20:21:55;17.10;;;8.50;;
71484;SDS011;59300;52.074;4.758;2022-10-16T20:24:57;19.75;;;8.85;;
71484;SDS011;59300;52.074;4.758;2022-10-16T20:27:58;18.75;;;8.32;;